createdAt,value
2018-01-21T00:00:53.833Z,2.15
2018-01-21T00:03:21.961Z,2.95
2018-01-21T00:05:50.091Z,4.05
2018-01-21T00:08:18.200Z,3.80
2018-01-21T00:10:47.095Z,4.43
2018-01-21T00:13:16.882Z,5.03
2018-01-21T00:15:45.013Z,2.37
2018-01-21T00:18:13.126Z,4.07
2018-01-21T00:20:41.340Z,4.60
2018-01-21T00:23:10.227Z,4.78
2018-01-21T00:25:38.401Z,6.15
2018-01-21T00:28:07.292Z,4.85
2018-01-21T00:30:36.149Z,3.92
2018-01-21T00:33:05.059Z,2.50
2018-01-21T00:35:33.166Z,3.95
2018-01-21T00:38:01.301Z,4.25
2018-01-21T00:40:30.206Z,2.85
2018-01-21T00:42:58.378Z,2.83
2018-01-21T00:45:27.262Z,2.20
2018-01-21T00:47:55.378Z,5.10
2018-01-21T00:50:23.503Z,4.90
2018-01-21T00:52:51.612Z,4.22
2018-01-21T00:55:20.519Z,5.47
2018-01-21T00:57:48.641Z,5.00
2018-01-21T01:00:16.753Z,4.45
2018-01-21T01:02:44.886Z,2.75
2018-01-21T01:05:13.004Z,4.07
2018-01-21T01:07:41.154Z,5.07
2018-01-21T01:10:09.262Z,3.30
2018-01-21T01:12:38.194Z,4.97
2018-01-21T01:15:06.295Z,5.00
2018-01-21T01:17:34.437Z,4.50
2018-01-21T01:20:03.315Z,3.57
2018-01-21T01:22:31.443Z,3.87
2018-01-21T01:24:59.567Z,5.75
2018-01-21T01:27:29.691Z,2.33
2018-01-21T01:29:57.856Z,3.20
2018-01-21T01:32:32.609Z,3.87
2018-01-21T01:35:02.525Z,3.97
2018-01-21T01:37:31.389Z,2.50
2018-01-21T01:40:00.301Z,4.10
2018-01-21T01:42:29.168Z,4.50
2018-01-21T01:44:58.052Z,3.95
2018-01-21T01:47:26.938Z,4.25
2018-01-21T01:49:55.823Z,3.53
2018-01-21T01:52:24.755Z,3.70
2018-01-21T01:54:52.847Z,4.57
2018-01-21T01:57:20.963Z,4.30
2018-01-21T01:59:49.852Z,4.30
2018-01-21T02:02:18.732Z,5.03
2018-01-21T02:04:46.856Z,3.80
2018-01-21T02:07:15.018Z,3.45
2018-01-21T02:09:43.886Z,3.35
2018-01-21T02:12:11.992Z,3.40
2018-01-21T02:14:40.131Z,4.07
2018-01-21T02:17:09.037Z,4.03
2018-01-21T02:19:37.922Z,3.37
2018-01-21T02:22:06.803Z,3.92
2018-01-21T02:24:35.666Z,3.53
2018-01-21T02:27:03.882Z,3.78
2018-01-21T02:29:32.747Z,3.50
2018-01-21T02:32:01.663Z,4.07
2018-01-21T02:34:30.509Z,4.03
2018-01-21T02:36:59.401Z,3.28
2018-01-21T02:39:27.514Z,2.55
2018-01-21T02:41:55.623Z,3.90
2018-01-21T02:44:23.858Z,4.10
2018-01-21T02:46:52.718Z,4.25
2018-01-21T02:49:21.638Z,3.35
2018-01-21T02:51:50.525Z,3.85
2018-01-21T02:54:18.631Z,3.17
2018-01-21T02:56:46.778Z,2.37
2018-01-21T02:59:14.893Z,4.45
2018-01-21T03:01:42.997Z,3.97
2018-01-21T03:04:11.118Z,2.40
2018-01-21T03:06:39.247Z,2.35
2018-01-21T03:09:07.367Z,2.50
2018-01-21T03:11:35.501Z,4.40
2018-01-21T03:14:03.707Z,4.28
2018-01-21T03:16:31.789Z,3.28
2018-01-21T03:18:59.915Z,4.30
2018-01-21T03:21:28.045Z,4.62
2018-01-21T03:23:56.260Z,2.97
2018-01-21T03:26:25.150Z,5.30
2018-01-21T03:28:54.020Z,3.15
2018-01-21T03:31:22.889Z,3.12
2018-01-21T03:33:51.106Z,2.30
2018-01-21T03:36:19.960Z,3.28
2018-01-21T03:38:48.844Z,3.58
2018-01-21T03:41:16.960Z,4.22
2018-01-21T03:43:45.126Z,4.65
2018-01-21T03:46:14.016Z,3.25
2018-01-21T03:48:42.883Z,4.30
2018-01-21T03:51:11.013Z,4.50
2018-01-21T03:53:39.151Z,4.12
2018-01-21T03:56:08.008Z,3.60
2018-01-21T03:58:36.886Z,2.37
2018-01-21T04:01:05.014Z,4.40
2018-01-21T04:03:33.126Z,3.77
2018-01-21T04:06:01.269Z,3.72
2018-01-21T04:08:30.159Z,4.60
2018-01-21T04:10:58.272Z,2.97
2018-01-21T04:13:27.163Z,4.05
2018-01-21T04:15:56.041Z,3.50
2018-01-21T04:18:24.257Z,3.65
2018-01-21T04:20:53.146Z,3.97
2018-01-21T04:23:22.014Z,4.55
2018-01-21T04:25:50.900Z,3.20
2018-01-21T04:28:19.818Z,4.07
2018-01-21T04:30:48.706Z,3.90
2018-01-21T04:33:17.557Z,3.50
2018-01-21T04:35:46.486Z,4.82
2018-01-21T04:38:15.347Z,3.05
2018-01-21T04:40:44.231Z,3.50
2018-01-21T04:43:13.153Z,2.50
2018-01-21T04:45:42.044Z,2.22
2018-01-21T04:48:10.898Z,3.35
2018-01-21T04:50:39.801Z,2.92
2018-01-21T04:53:08.815Z,3.90
2018-01-21T04:55:37.665Z,3.20
2018-01-21T04:58:06.564Z,6.30
2018-01-21T05:00:35.437Z,2.17
2018-01-21T05:03:03.566Z,1.55
2018-01-21T05:05:31.685Z,3.40
2018-01-21T05:07:59.814Z,3.08
2018-01-21T05:10:27.935Z,3.55
2018-01-21T05:12:56.861Z,2.80
2018-01-21T05:15:25.751Z,3.97
2018-01-21T05:17:54.605Z,3.97
2018-01-21T05:20:23.495Z,3.37
2018-01-21T05:22:52.375Z,3.10
2018-01-21T05:25:20.502Z,3.45
2018-01-21T05:27:48.616Z,2.90
2018-01-21T05:30:16.839Z,3.20
2018-01-21T05:32:45.726Z,3.25
2018-01-21T05:35:13.837Z,3.53
2018-01-21T05:37:42.791Z,2.62
2018-01-21T05:40:11.645Z,3.28
2018-01-21T05:42:40.570Z,9.35
2018-01-21T05:45:09.542Z,2.65
2018-01-21T05:47:39.785Z,3.03
2018-01-21T05:50:07.939Z,2.57
2018-01-21T05:52:36.068Z,1.52
2018-01-21T05:55:04.573Z,3.50
2018-01-21T05:57:33.500Z,3.17
2018-01-21T06:00:01.614Z,3.45
2018-01-21T06:02:29.744Z,1.92
2018-01-21T06:04:58.734Z,3.00
2018-01-21T06:07:26.911Z,2.58
2018-01-21T06:09:55.779Z,4.72
2018-01-21T06:12:23.907Z,1.98
2018-01-21T06:14:52.145Z,3.00
2018-01-21T06:17:21.140Z,3.22
2018-01-21T06:19:49.994Z,3.23
2018-01-21T06:22:18.887Z,3.50
2018-01-21T06:24:47.767Z,3.45
2018-01-21T06:27:29.163Z,3.70
2018-01-21T06:29:58.037Z,3.87
2018-01-21T06:32:26.972Z,3.17
2018-01-21T06:34:55.082Z,2.45
2018-01-21T06:37:23.203Z,3.67
2018-01-21T06:39:51.341Z,3.62
2018-01-21T06:42:19.461Z,4.53
2018-01-21T06:44:47.585Z,5.30
2018-01-21T06:47:15.802Z,2.12
2018-01-21T06:49:44.678Z,3.20
2018-01-21T06:52:12.787Z,4.15
2018-01-21T06:54:40.907Z,3.35
2018-01-21T06:57:09.793Z,4.20
2018-01-21T06:59:38.680Z,3.08
2018-01-21T07:02:07.579Z,7.00
2018-01-21T07:04:36.473Z,2.63
2018-01-21T07:07:04.622Z,4.12
2018-01-21T07:09:32.739Z,3.25
2018-01-21T07:12:00.870Z,5.37
2018-01-21T07:14:29.090Z,3.55
2018-01-21T07:16:57.191Z,4.15
2018-01-21T07:19:25.316Z,4.33
2018-01-21T07:21:53.443Z,9.13
2018-01-21T07:24:21.578Z,6.12
2018-01-21T07:26:49.720Z,2.75
2018-01-21T07:29:19.022Z,4.10
2018-01-21T07:31:47.942Z,3.10
2018-01-21T07:34:16.082Z,3.28
2018-01-21T07:36:45.000Z,3.45
2018-01-21T07:39:13.101Z,4.20
2018-01-21T07:41:41.238Z,2.85
2018-01-21T07:44:09.362Z,2.95
2018-01-21T07:46:37.498Z,1.48
2018-01-21T07:49:05.606Z,2.43
2018-01-21T07:51:33.746Z,3.83
2018-01-21T07:54:01.880Z,3.30
2018-01-21T07:56:31.117Z,3.17
2018-01-21T07:58:59.835Z,2.33
2018-01-21T08:01:28.053Z,2.35
2018-01-21T08:03:56.949Z,3.78
2018-01-21T08:06:25.055Z,4.25
2018-01-21T08:08:53.212Z,3.72
2018-01-21T08:11:21.317Z,4.28
2018-01-21T08:13:50.353Z,2.50
2018-01-21T08:16:18.455Z,2.60
2018-01-21T08:18:46.590Z,3.10
2018-01-21T08:21:14.870Z,3.83
2018-01-21T08:23:43.734Z,4.45
2018-01-21T08:26:12.654Z,4.15
2018-01-21T08:28:40.766Z,4.43
2018-01-21T08:31:08.914Z,4.60
2018-01-21T08:33:37.037Z,1.70
2018-01-21T08:39:17.694Z,2.30
2018-01-21T08:41:48.592Z,5.25
2018-01-21T08:44:16.702Z,3.72
2018-01-21T08:46:44.810Z,3.85
2018-01-21T08:49:12.968Z,3.60
2018-01-21T08:51:41.085Z,5.12
2018-01-21T08:54:09.218Z,5.25
2018-01-21T08:56:38.139Z,2.85
2018-01-21T08:59:07.029Z,3.67
2018-01-21T09:01:35.191Z,3.77
2018-01-21T09:04:03.372Z,2.80
2018-01-21T09:06:31.549Z,4.00
2018-01-21T09:08:59.641Z,3.70
2018-01-21T09:11:27.892Z,4.62
2018-01-21T09:13:56.782Z,2.08
2018-01-21T09:16:24.926Z,3.17
2018-01-21T09:18:53.136Z,4.60
2018-01-21T09:21:22.046Z,6.32
2018-01-21T09:23:50.961Z,6.22
2018-01-21T09:26:19.088Z,5.40
2018-01-21T09:28:47.207Z,5.85
2018-01-21T09:31:15.330Z,1.87
2018-01-21T09:33:43.478Z,2.90
2018-01-21T09:36:12.603Z,5.30
2018-01-21T09:38:41.499Z,4.95
2018-01-21T09:41:09.614Z,4.68
2018-01-21T09:43:37.776Z,5.43
2018-01-21T09:46:05.899Z,4.35
2018-01-21T09:48:34.023Z,4.13
2018-01-21T09:51:02.252Z,4.57
2018-01-21T09:53:30.353Z,3.90
2018-01-21T09:55:58.600Z,5.18
2018-01-21T09:58:27.604Z,5.07
2018-01-21T10:00:55.735Z,3.67
2018-01-21T10:03:23.838Z,5.70
2018-01-21T10:05:51.978Z,5.30
2018-01-21T10:08:20.880Z,4.37
2018-01-21T10:10:49.764Z,3.50
2018-01-21T10:13:18.682Z,3.30
2018-01-21T10:15:46.815Z,3.92
2018-01-21T10:18:15.029Z,5.82
2018-01-21T10:20:43.903Z,5.62
2018-01-21T10:23:12.090Z,2.53
2018-01-21T10:25:40.218Z,5.70
2018-01-21T10:28:08.340Z,4.90
2018-01-21T10:30:36.449Z,4.68
2018-01-21T10:33:04.601Z,3.50
2018-01-21T10:35:32.766Z,5.77
2018-01-21T10:38:00.896Z,4.68
2018-01-21T10:40:29.034Z,3.80
2018-01-21T10:42:57.155Z,6.37
2018-01-21T10:45:26.048Z,4.50
2018-01-21T10:47:54.180Z,5.65
2018-01-21T10:50:22.312Z,2.63
2018-01-21T10:52:50.468Z,5.60
2018-01-21T10:55:18.582Z,4.43
2018-01-21T10:57:46.728Z,5.05
2018-01-21T11:00:14.881Z,5.03
2018-01-21T11:02:43.030Z,7.00
2018-01-21T11:05:11.195Z,2.87
2018-01-21T11:07:39.324Z,4.30
2018-01-21T11:10:07.444Z,6.65
2018-01-21T11:12:35.575Z,5.15
2018-01-21T11:15:03.746Z,2.83
2018-01-21T11:17:31.871Z,6.07
2018-01-21T11:20:00.078Z,2.40
2018-01-21T11:22:28.938Z,2.60
2018-01-21T11:24:57.876Z,4.05
2018-01-21T11:27:26.010Z,6.68
2018-01-21T11:29:54.876Z,5.78
2018-01-21T11:32:23.011Z,6.43
2018-01-21T11:34:51.161Z,7.27
2018-01-21T11:37:20.041Z,4.40
2018-01-21T11:39:48.931Z,7.10
2018-01-21T11:42:17.073Z,4.43
2018-01-21T11:44:45.198Z,2.65
2018-01-21T11:47:13.355Z,2.75
2018-01-21T11:49:41.481Z,3.72
2018-01-21T11:52:10.374Z,2.45
2018-01-21T11:54:38.501Z,4.65
2018-01-21T11:57:06.644Z,4.30
2018-01-21T11:59:34.771Z,1.60
2018-01-21T12:02:02.891Z,2.90
2018-01-21T12:04:31.794Z,7.90
2018-01-21T12:07:00.700Z,2.65
2018-01-21T12:09:28.847Z,2.72
2018-01-21T12:11:57.726Z,2.83
2018-01-21T12:14:26.673Z,4.70
2018-01-21T12:16:54.826Z,4.55
2018-01-21T12:19:22.976Z,3.90
2018-01-21T12:21:51.277Z,4.32
2018-01-21T12:24:20.167Z,3.70
2018-01-21T12:26:49.062Z,4.85
2018-01-21T12:29:17.240Z,3.65
2018-01-21T12:31:45.395Z,2.55
2018-01-21T12:34:13.564Z,3.67
2018-01-21T12:36:42.469Z,4.78
2018-01-21T12:39:10.586Z,4.43
2018-01-21T12:41:38.824Z,2.78
2018-01-21T12:44:07.022Z,4.15
2018-01-21T12:46:35.193Z,4.00
2018-01-21T12:49:03.390Z,3.97
2018-01-21T12:51:31.522Z,1.83
2018-01-21T12:53:59.719Z,3.87
2018-01-21T12:56:27.837Z,2.17
2018-01-21T12:58:56.135Z,4.15
2018-01-21T13:01:24.293Z,6.43
2018-01-21T13:03:53.147Z,4.67
2018-01-21T13:06:22.085Z,3.80
2018-01-21T13:08:50.230Z,3.80
2018-01-21T13:11:19.139Z,2.62
2018-01-21T13:13:47.272Z,4.47
2018-01-21T13:16:15.434Z,3.75
2018-01-21T13:18:43.541Z,2.62
2018-01-21T13:21:11.722Z,3.12
2018-01-21T13:23:39.849Z,3.28
2018-01-21T13:26:07.992Z,2.72
2018-01-21T13:28:36.133Z,3.10
2018-01-21T13:31:04.378Z,3.10
2018-01-21T13:33:32.557Z,3.25
2018-01-21T13:36:00.659Z,3.12
2018-01-21T13:38:28.817Z,3.00
2018-01-21T13:40:57.694Z,3.30
2018-01-21T13:43:26.603Z,2.58
2018-01-21T13:45:54.792Z,5.22
2018-01-21T13:48:22.967Z,2.10
2018-01-21T13:50:51.138Z,4.75
2018-01-21T13:53:19.310Z,2.55
2018-01-21T13:55:47.432Z,5.97
2018-01-21T13:58:15.570Z,2.83
2018-01-21T14:00:44.053Z,5.13
2018-01-21T14:03:12.216Z,3.10
2018-01-21T14:05:40.369Z,4.40
2018-01-21T14:08:08.487Z,6.07
2018-01-21T14:10:37.422Z,3.80
2018-01-21T14:13:05.568Z,7.12
2018-01-21T14:15:34.439Z,5.22
2018-01-21T14:18:02.597Z,5.32
2018-01-21T14:20:30.782Z,4.37
2018-01-21T14:22:58.923Z,4.72
2018-01-21T14:25:27.043Z,4.85
2018-01-21T14:27:55.243Z,3.97
2018-01-21T14:30:23.345Z,5.55
2018-01-21T14:32:51.511Z,4.87
2018-01-21T14:35:19.692Z,2.08
2018-01-21T14:37:47.841Z,6.62
2018-01-21T14:40:16.726Z,6.00
2018-01-21T14:42:44.897Z,4.80
2018-01-21T14:45:13.070Z,4.87
2018-01-21T14:47:41.985Z,4.18
2018-01-21T14:50:10.960Z,8.67
2018-01-21T14:52:39.878Z,4.45
2018-01-21T14:55:07.987Z,3.60
2018-01-21T14:57:36.210Z,5.35
2018-01-21T15:00:05.225Z,5.75
2018-01-21T15:02:33.473Z,7.85
2018-01-21T15:05:01.570Z,4.32
2018-01-21T15:07:29.832Z,10.02
2018-01-21T15:09:57.986Z,3.45
2018-01-21T15:12:26.865Z,3.92
2018-01-21T15:14:55.054Z,7.55
2018-01-21T15:17:23.245Z,9.35
2018-01-21T15:19:51.440Z,9.00
2018-01-21T15:22:19.641Z,8.65
2018-01-21T15:24:48.803Z,5.40
2018-01-21T15:27:16.910Z,6.43
2018-01-21T15:29:45.813Z,9.45
2018-01-21T15:32:13.958Z,6.65
2018-01-21T15:34:42.068Z,6.37
2018-01-21T15:37:12.783Z,5.57
2018-01-21T15:39:42.429Z,8.57
2018-01-21T15:42:10.584Z,6.47
2018-01-21T15:44:38.722Z,6.78
2018-01-21T15:47:06.930Z,4.50
2018-01-21T15:49:35.053Z,6.07
2018-01-21T15:52:03.175Z,4.37
2018-01-21T15:54:31.347Z,5.85
2018-01-21T15:57:00.246Z,5.00
2018-01-21T15:59:28.373Z,5.57
2018-01-21T16:01:57.310Z,4.40
2018-01-21T16:04:26.222Z,4.10
2018-01-21T16:06:54.452Z,6.25
2018-01-21T16:09:23.400Z,4.60
2018-01-21T16:11:51.539Z,5.10
2018-01-21T16:14:19.740Z,11.60
2018-01-21T16:16:47.873Z,16.25
2018-01-21T16:19:16.981Z,10.20
2018-01-21T16:21:45.698Z,5.43
2018-01-21T16:24:14.350Z,6.97
2018-01-21T16:26:42.511Z,5.97
2018-01-21T16:29:11.404Z,5.85
2018-01-21T16:31:39.561Z,6.47
2018-01-21T16:34:07.718Z,5.32
2018-01-21T16:36:36.848Z,9.63
2018-01-21T16:39:04.978Z,10.70
2018-01-21T16:41:33.252Z,16.60
2018-01-21T16:44:01.374Z,14.43
2018-01-21T16:46:29.501Z,9.95
2018-01-21T16:48:57.696Z,7.27
2018-01-21T16:51:25.894Z,7.22
2018-01-21T16:53:54.152Z,7.35
2018-01-21T16:56:23.894Z,7.97
2018-01-21T16:58:59.649Z,9.20
2018-01-21T17:01:29.540Z,7.07
2018-01-21T17:03:59.085Z,9.17
2018-01-21T17:06:29.313Z,6.60
2018-01-21T17:08:57.746Z,7.45
2018-01-21T17:11:25.889Z,7.15
2018-01-21T17:13:54.062Z,11.00
2018-01-21T17:16:22.303Z,8.15
2018-01-21T17:18:51.519Z,9.33
2018-01-21T17:21:19.728Z,7.72
2018-01-21T17:23:47.872Z,7.60
2018-01-21T17:26:16.007Z,8.07
2018-01-21T17:28:48.725Z,8.50
2018-01-21T17:31:16.964Z,7.90
2018-01-21T17:33:45.871Z,6.03
2018-01-21T17:36:14.109Z,10.73
2018-01-21T17:38:42.296Z,9.60
2018-01-21T17:41:11.220Z,11.23
2018-01-21T17:43:39.352Z,11.90
2018-01-21T17:46:08.257Z,12.85
2018-01-21T17:48:37.270Z,10.50
2018-01-21T17:51:07.173Z,21.98
2018-01-21T17:53:35.360Z,52.45
2018-01-21T17:56:03.547Z,27.62
2018-01-21T17:58:31.671Z,12.15
2018-01-21T18:01:00.606Z,8.00
2018-01-21T18:03:28.864Z,6.53
2018-01-21T18:05:57.075Z,6.20
2018-01-21T18:08:25.198Z,10.38
2018-01-21T18:10:54.351Z,10.82
2018-01-21T18:13:22.536Z,13.32
2018-01-21T18:15:50.826Z,10.07
2018-01-21T18:18:19.751Z,22.30
2018-01-21T18:20:47.990Z,17.92
2018-01-21T18:23:16.918Z,13.95
2018-01-21T18:25:45.034Z,12.93
2018-01-21T18:28:13.346Z,7.10
2018-01-21T18:33:17.405Z,9.85
2018-01-21T18:35:45.525Z,12.07
2018-01-21T18:38:13.792Z,20.88
2018-01-21T18:40:41.960Z,14.20
2018-01-21T18:43:10.927Z,10.05
2018-01-21T18:45:39.192Z,10.90
2018-01-21T18:48:07.341Z,11.20
2018-01-21T18:50:36.293Z,14.57
2018-01-21T18:53:04.518Z,10.98
2018-01-21T18:55:32.795Z,10.93
2018-01-21T18:58:01.017Z,11.27
2018-01-21T19:00:29.218Z,9.67
2018-01-21T19:02:57.331Z,10.02
2018-01-21T19:05:25.681Z,11.07
2018-01-21T19:07:54.788Z,10.35
2018-01-21T19:10:23.780Z,12.20
2018-01-21T19:12:51.912Z,12.05
2018-01-21T19:15:20.102Z,12.25
2018-01-21T19:17:48.369Z,11.93
2018-01-21T19:20:17.287Z,10.20
2018-01-21T19:22:45.487Z,13.52
2018-01-21T19:25:14.198Z,29.70
2018-01-21T19:27:42.377Z,20.12
2018-01-21T19:30:10.659Z,18.35
2018-01-21T19:32:39.670Z,19.20
2018-01-21T19:35:08.575Z,16.43
2018-01-21T19:37:37.064Z,15.77
2018-01-21T19:40:26.268Z,13.98
2018-01-21T19:42:55.344Z,16.52
2018-01-21T19:45:23.689Z,16.83
2018-01-21T19:47:53.706Z,12.30
2018-01-21T19:50:22.437Z,16.27
2018-01-21T19:52:50.781Z,13.68
2018-01-21T19:55:18.986Z,17.08
2018-01-21T19:57:47.166Z,10.80
2018-01-21T20:00:15.459Z,15.50
2018-01-21T20:02:43.856Z,27.25
2018-01-21T20:05:12.094Z,29.93
2018-01-21T20:07:40.329Z,21.65
2018-01-21T20:10:09.328Z,21.12
2018-01-21T20:12:38.295Z,19.40
2018-01-21T20:15:06.494Z,18.37
2018-01-21T20:17:35.476Z,15.68
2018-01-21T20:20:03.624Z,17.40
2018-01-21T20:22:31.871Z,17.52
2018-01-21T20:25:00.051Z,14.80
2018-01-21T20:27:28.333Z,16.83
2018-01-21T20:29:57.427Z,18.55
2018-01-21T20:32:25.700Z,17.40
2018-01-21T20:34:54.088Z,13.60
2018-01-21T20:37:23.194Z,13.43
2018-01-21T20:39:52.476Z,11.75
2018-01-21T20:42:20.671Z,12.52
2018-01-21T20:44:49.671Z,16.90
2018-01-21T20:47:18.660Z,17.67
2018-01-21T20:49:47.113Z,16.10
2018-01-21T20:52:20.990Z,11.18
2018-01-21T20:54:49.171Z,13.40
2018-01-21T20:57:17.491Z,13.52
2018-01-21T20:59:45.940Z,11.93
2018-01-21T21:02:14.760Z,15.63
2018-01-21T21:04:42.999Z,23.77
2018-01-21T21:07:11.254Z,24.67
2018-01-21T21:09:39.558Z,31.65
2018-01-21T21:12:07.733Z,26.83
2018-01-21T21:14:35.953Z,23.50
2018-01-21T21:17:04.133Z,17.48
2018-01-21T21:19:33.319Z,16.30
2018-01-21T21:22:02.880Z,19.92
2018-01-21T21:24:31.184Z,19.62
2018-01-21T21:26:59.352Z,17.70
2018-01-21T21:29:27.517Z,14.60
2018-01-21T21:31:55.971Z,22.00
2018-01-21T21:34:24.139Z,19.23
2018-01-21T21:36:54.198Z,15.27
2018-01-21T21:39:23.489Z,10.75
2018-01-21T21:41:58.156Z,18.05
2018-01-21T21:44:33.607Z,23.92
2018-01-21T21:47:01.943Z,21.05
2018-01-21T21:49:30.166Z,14.57
2018-01-21T21:51:59.313Z,15.30
2018-01-21T21:54:27.411Z,12.27
2018-01-21T21:56:56.592Z,11.23
2018-01-21T21:59:26.940Z,10.60
2018-01-21T22:01:55.904Z,10.35
2018-01-21T22:04:24.072Z,9.80
2018-01-21T22:06:52.646Z,11.38
2018-01-21T22:09:20.922Z,10.57
2018-01-21T22:11:49.309Z,11.32
2018-01-21T22:14:17.596Z,8.65
2018-01-21T22:16:45.736Z,10.15
2018-01-21T22:19:14.043Z,10.30
2018-01-21T22:21:44.662Z,10.13
2018-01-21T22:24:14.535Z,8.98
2018-01-21T22:26:42.852Z,9.57
2018-01-21T22:29:12.159Z,11.77
2018-01-21T22:31:40.327Z,13.80
2018-01-21T22:34:09.623Z,9.95
2018-01-21T22:36:37.916Z,11.45
2018-01-21T22:39:08.228Z,8.55
2018-01-21T22:41:36.441Z,8.75
2018-01-21T22:44:05.796Z,11.75
2018-01-21T22:46:34.001Z,9.30
2018-01-21T22:49:02.097Z,10.83
2018-01-21T22:51:30.281Z,11.18
2018-01-21T22:53:59.474Z,14.15
2018-01-21T22:56:28.246Z,13.35
2018-01-21T22:58:58.095Z,13.50
2018-01-21T23:01:26.260Z,12.52
2018-01-21T23:03:54.446Z,14.95
2018-01-21T23:06:23.942Z,10.10
2018-01-21T23:08:52.322Z,11.10
2018-01-21T23:11:21.216Z,12.95
2018-01-21T23:13:49.325Z,9.50
2018-01-21T23:16:17.491Z,9.85
2018-01-21T23:18:46.370Z,6.90
2018-01-21T23:21:15.300Z,10.23
2018-01-21T23:23:43.407Z,8.27
2018-01-21T23:26:11.553Z,16.12
2018-01-21T23:28:39.744Z,15.63
2018-01-21T23:31:07.975Z,10.23
2018-01-21T23:33:36.089Z,11.77
2018-01-21T23:36:04.221Z,8.25
2018-01-21T23:38:32.361Z,11.12
2018-01-21T23:41:00.498Z,9.73
2018-01-21T23:43:28.676Z,9.18
2018-01-21T23:45:56.819Z,9.68
2018-01-21T23:48:24.990Z,10.27
2018-01-21T23:50:53.135Z,9.32
2018-01-21T23:53:21.290Z,12.52
2018-01-21T23:55:50.235Z,11.12
2018-01-21T23:58:18.385Z,6.97
